My Meet Scores
Kassidy Hereau, Kinetic Gymnastics - MyMeetScores.com
Top100 | Top Teams | Upcoming Meets | Completed Meets | Latest | Add Scores | Help| Support | Bookmark and Share

Kassidy Hereau, Kinetic Gymnastics
Personal Bests
LevelVault BarsBeamFloorAA
39.5008.700 8.8759.07535.375
48.5758.300 8.3008.97534.100
69.1008.425 8.2009.10033.500
78.8757.900 8.1259.05033.425
XB9.3509.500 9.4509.55037.150
XS9.5009.300 9.2509.40037.300
Meet Scores
Date Meet Team Session Level Division Vault Bars Beam Floor AA
2022-03-25 2022 Colorado Level 7,9 %2610 State Championshi Kinetic Gymnastics 5 7 SR D 8.650 11T 7.300 12 8.050 14 8.100 15 32.100 14
2022-03-06 2022 Colorado Sky Invitational Kinetic Gymnastics 5A 7 Sr B 8.575 9 7.325 15 6.575 17 8.575 13 31.050 16
2022-02-18 2022 Magical Classic Kinetic Gymnastics D6 7 D6L7G5 8.875 8 7.900 13T 8.025 13 8.625 12 33.425 14
2022-01-28 KC Coed Classic Kinetic Gymnastics 04R 7 15+ yrs. 8.575 6 6.950 5 8.125 5 9.050 3 32.700 5
2022-01-22 5280 Women%27s Mile High Invitational Kinetic Gymnastics 1 7 Older 7.950 40 6.900 37 5.650 40 8.750 39 29.250 39
2022-01-07 Sweetheart Invitational 2022 Kinetic Gymnastics 1 7 Sr B 8.500 13T 6.950 11 6.300 16 7.900 12T 29.650 11
2021-04-10 CO Level 6/7 State Meet Kinetic Gymnastics 5 6 Sr B 8.600 13 7.700 14 8.100 14 9.100 10 33.500 12
2021-03-25 Active Athletics Hippity Hoppity 2021 Kinetic Gymnastics 07 6 All 9.100 4 7.100 9 7.400 9 8.875 7 32.475 9
2021-03-05 Live, Love Gymnastics Kinetic Gymnastics 13 6 SENIOR 8.775 8 8.425 7 7.300 9 8.850 9 33.350 9
2021-01-15 Colorado Classic 2021 Kinetic Gymnastics 03 6 Senior 7.800 11 8.300 6T 8.200 10 8.925 8 33.225 9
2019-11-16 Colorado Level 4 State Kinetic Gymnastics 2 4 Sr. 2D 8.575 8T 8.300 7 8.250 5 8.975 6 34.100 6
2019-10-18 2019 Pink Ribbon Invitational Kinetic Gymnastics 4 4 Sr C 8.400 3 7.725 9 7.725 9 8.650 5 32.500 7
2019-10-05 2019 Judge's Cup NAWGJ Colorado Kinetic Gymnastics 3 4 Senior 7.800 14 7.575 12 8.300 9T 8.725 8 32.400 11
2019-09-27 2019 CGI Autumn Classic Kinetic Gymnastics 4 4 Senior 8.000 8 7.900 6 8.100 7 8.400 6 32.400 6
2019-09-14 2019 AGA Septemberfest Kinetic Gymnastics 3 4 All 0.000 18 7.850 13 7.425 15 8.575 16 23.850 17
2018-11-03 Level 3 State Kinetic Gymnastics 2 3 Junior B 9.500 2 8.675 7 7.250 15 9.075 5 34.500 10
2018-10-27 Xtreme Altitude Fall Classic Kinetic Gymnastics 1 3 Senior 9.350 5 8.700 10T 8.550 7T 8.775 8T 35.375 6
2018-10-20 2018 JET Pink Ribbon Invitational Kinetic Gymnastics 2 3 Sr C 9.075 4 8.450 6 8.875 4 8.000 17 34.400 6T
2018-10-06 2018 AGA Rocktoberfest Kinetic Gymnastics 1 3 SR 9.050 6T 8.700 12 8.450 7 8.925 6T 35.125 4
2018-06-02 2018 Colorado Xcel Silver State Jumpers 3 XS Sr A 9.400 1 9.300 6T 8.625 9 9.175 7 36.500 2
2018-05-11 Aloha 2018 XCEL Jumpers 3 XS Senior 9.500 1 9.250 1 9.150 4T 9.400 1T 37.300 1
2018-04-27 April Showers Xcel Meet Jumpers 2 XS Senior 9.000 6 9.150 5T 9.250 2T 8.700 10 36.100 5T
2018-04-06 Active Athletics Hippity Hoppity 2018 Jumpers 07 XS Senior B 8.850 17 8.900 17T 9.150 13 9.150 14T 36.050 16T
2018-03-17 Mildred C. Burnham Invitational Jumpers 3 XS Sr A 8.900 36T 9.300 21T 8.600 45T 8.750 30T 35.550 37
2018-03-03 Cheryl Baits Memorial Classic Jumpers 2 XS Senior 9.000 11 8.400 16 9.050 8 9.150 7 35.600 13
2017-06-10 2017 Colorado Xcel Bronze State Championships Jumpers 5 XB Sr A 9.225 11 9.500 5T 9.075 9 9.225 8T 37.025 6T
2017-05-20 2017 Cartwheel Carnival Jumpers 6 XB Senior 8.700 11 9.300 5 9.450 4 9.300 6T 36.750 7
2017-04-08 DSG XCel Spring Meet Jumpers 2 XB Sr 9.350 5T 9.300 4T 9.300 3T 9.200 3T 37.150 3
2017-04-01 Stars Of Xcel Spring Invitational Jumpers 4 XB Junior 9.100 8 9.100 9 8.900 9 9.250 10 36.350 10
2017-03-18 Cheryl Baits Xcel Classic Jumpers 4 XB Senior 9.300 17 8.700 22 9.200 15 9.550 7 36.750 18
Get your scores on
a t-shirt, pin, or hoodie